createdAt,value
2022-10-17T00:03:42.580Z,11.20
2022-10-17T00:08:45.371Z,10.13
2022-10-17T00:13:50.091Z,22.35
2022-10-17T00:18:52.160Z,22.80
2022-10-17T00:23:54.922Z,15.32
2022-10-17T00:28:57.233Z,12.15
2022-10-17T00:33:59.041Z,14.15
2022-10-17T00:39:00.992Z,13.65
2022-10-17T00:44:24.281Z,11.00
2022-10-17T00:49:30.509Z,14.15
2022-10-17T00:54:37.576Z,23.08
2022-10-17T00:59:42.422Z,11.50
2022-10-17T01:04:46.837Z,12.93
2022-10-17T01:09:49.705Z,20.13
2022-10-17T01:15:38.946Z,27.15
2022-10-17T01:21:00.238Z,13.85
2022-10-17T01:26:41.757Z,13.15
2022-10-17T01:32:01.862Z,14.65
2022-10-17T01:37:32.727Z,21.53
2022-10-17T01:42:58.308Z,12.52
2022-10-17T01:48:06.063Z,11.43
2022-10-17T01:53:34.192Z,11.32
2022-10-17T01:58:51.433Z,18.13
2022-10-17T02:03:54.644Z,28.80
2022-10-17T02:08:56.833Z,42.17
2022-10-17T02:19:25.546Z,16.23
2022-10-17T02:24:30.288Z,13.80
2022-10-17T02:29:39.790Z,6.93
2022-10-17T02:34:49.248Z,18.08
2022-10-17T02:39:51.661Z,20.83
2022-10-17T02:44:55.104Z,9.52
2022-10-17T02:49:58.965Z,16.27
2022-10-17T02:55:09.415Z,10.82
2022-10-17T03:00:13.885Z,24.45
2022-10-17T03:05:22.625Z,23.40
2022-10-17T03:10:24.405Z,26.20
2022-10-17T03:15:26.255Z,18.83
2022-10-17T03:20:28.335Z,11.50
2022-10-17T03:25:30.208Z,9.20
2022-10-17T03:30:32.677Z,15.68
2022-10-17T03:35:34.486Z,10.23
2022-10-17T03:40:36.296Z,10.93
2022-10-17T03:45:40.201Z,10.98
2022-10-17T03:50:41.996Z,18.60
2022-10-17T03:55:43.867Z,17.35
2022-10-17T04:00:48.542Z,9.02
2022-10-17T04:05:50.572Z,9.15
2022-10-17T04:10:52.604Z,11.32
2022-10-17T04:15:59.022Z,14.68
2022-10-17T04:21:05.852Z,20.92
2022-10-17T04:26:07.638Z,13.90
2022-10-17T04:31:13.229Z,18.10
2022-10-17T04:36:18.271Z,14.77
2022-10-17T04:41:20.948Z,7.45
2022-10-17T04:46:22.870Z,13.13
2022-10-17T04:51:26.594Z,12.27
2022-10-17T04:56:28.598Z,12.80
2022-10-17T05:01:30.374Z,12.45
2022-10-17T05:06:33.258Z,9.38
2022-10-17T05:11:35.109Z,4.20
2022-10-17T05:16:36.970Z,10.30
2022-10-17T05:21:39.231Z,16.52
2022-10-17T05:26:41.071Z,13.77
2022-10-17T05:31:42.957Z,11.85
2022-10-17T05:36:44.695Z,22.77
2022-10-17T05:41:47.152Z,15.20
2022-10-17T05:46:50.006Z,12.25
2022-10-17T05:51:51.741Z,18.10
2022-10-17T05:56:54.766Z,15.32
2022-10-17T06:01:56.679Z,8.70
2022-10-17T06:06:58.685Z,8.32
2022-10-17T06:12:00.573Z,5.80
2022-10-17T06:17:02.746Z,7.75
2022-10-17T06:22:04.591Z,8.43
2022-10-17T06:27:10.893Z,7.28
2022-10-17T06:32:15.326Z,14.10
2022-10-17T06:37:17.250Z,11.05
2022-10-17T06:42:19.065Z,10.85
2022-10-17T06:47:20.987Z,9.82
2022-10-17T06:52:23.195Z,7.68
2022-10-17T06:57:25.064Z,17.73
2022-10-17T07:02:27.064Z,9.00
2022-10-17T07:07:32.599Z,8.40
2022-10-17T07:12:35.596Z,9.38
2022-10-17T07:17:37.680Z,6.88
2022-10-17T07:22:39.533Z,9.27
2022-10-17T07:27:41.375Z,5.05
2022-10-17T07:32:43.967Z,6.65
2022-10-17T07:37:45.798Z,7.18
2022-10-17T07:42:47.627Z,7.03
2022-10-17T07:47:49.770Z,6.43
2022-10-17T07:52:51.772Z,7.55
2022-10-17T07:57:53.722Z,5.28
2022-10-17T08:02:55.648Z,5.13
2022-10-17T08:07:57.723Z,8.50
2022-10-17T08:12:59.568Z,5.97
2022-10-17T08:18:01.457Z,6.97
2022-10-17T08:23:03.345Z,5.75
2022-10-17T08:28:05.478Z,5.47
2022-10-17T08:33:07.426Z,4.97
2022-10-17T08:38:12.243Z,5.13
2022-10-17T08:43:35.590Z,5.28
2022-10-17T08:48:46.309Z,4.50
2022-10-17T08:54:08.626Z,4.10
2022-10-17T08:59:17.260Z,3.20
2022-10-17T09:04:44.087Z,3.30
2022-10-17T09:09:58.005Z,2.90
2022-10-17T09:15:18.285Z,3.25
2022-10-17T09:20:24.306Z,3.20
2022-10-17T09:25:27.896Z,3.00
2022-10-17T09:30:56.134Z,2.92
2022-10-17T09:35:59.360Z,2.58
2022-10-17T09:41:03.059Z,2.75
2022-10-17T09:46:11.465Z,2.55
2022-10-17T09:51:25.662Z,2.55
2022-10-17T09:56:27.777Z,2.47
2022-10-17T10:01:31.612Z,2.60
2022-10-17T10:06:33.670Z,2.42
2022-10-17T10:11:46.374Z,2.42
2022-10-17T10:16:50.068Z,2.60
2022-10-17T10:21:57.591Z,2.28
2022-10-17T10:27:02.689Z,2.40
2022-10-17T10:32:12.190Z,2.30
2022-10-17T10:37:21.958Z,2.35
2022-10-17T10:42:28.996Z,2.30
2022-10-17T10:47:32.967Z,2.40
2022-10-17T10:52:51.100Z,2.50
2022-10-17T10:57:58.532Z,2.90
2022-10-17T11:03:13.921Z,2.53
2022-10-17T11:08:36.906Z,2.30
2022-10-17T11:13:45.347Z,2.38
2022-10-17T11:18:55.168Z,2.40
2022-10-17T11:29:07.069Z,2.30
2022-10-17T11:34:19.966Z,2.42
2022-10-17T11:39:34.137Z,2.38
2022-10-17T11:44:41.337Z,2.40
2022-10-17T11:49:51.487Z,2.35
2022-10-17T11:55:02.324Z,2.80
2022-10-17T12:00:21.370Z,2.40
2022-10-17T12:05:33.436Z,2.28
2022-10-17T12:11:01.721Z,2.42
2022-10-17T12:16:21.766Z,2.33
2022-10-17T12:21:25.543Z,2.90
2022-10-17T12:26:30.587Z,2.50
2022-10-17T12:31:34.061Z,2.50
2022-10-17T12:36:36.079Z,3.92
2022-10-17T12:41:40.964Z,3.47
2022-10-17T12:47:09.848Z,2.30
2022-10-17T12:52:23.208Z,2.15
2022-10-17T12:57:34.878Z,3.05
2022-10-17T13:02:36.858Z,2.60
2022-10-17T13:07:42.938Z,2.70
2022-10-17T13:12:45.165Z,2.55
2022-10-17T13:17:56.327Z,2.58
2022-10-17T13:22:58.818Z,2.65
2022-10-17T13:28:06.960Z,2.45
2022-10-17T13:33:35.129Z,2.50
2022-10-17T13:38:40.365Z,2.80
2022-10-17T13:43:44.867Z,2.33
2022-10-17T13:48:46.843Z,2.40
2022-10-17T13:53:48.665Z,2.40
2022-10-17T13:58:57.656Z,2.47
2022-10-17T14:04:09.383Z,2.30
2022-10-17T14:09:30.564Z,2.33
2022-10-17T14:25:35.751Z,2.60
2022-10-17T14:30:56.360Z,2.40
2022-10-17T14:36:01.244Z,2.63
2022-10-17T14:41:41.502Z,2.55
2022-10-17T14:46:39.075Z,2.40
2022-10-17T14:51:50.651Z,2.30
2022-10-17T14:57:14.961Z,2.28
2022-10-17T15:02:17.087Z,2.83
2022-10-17T15:07:21.228Z,2.47
2022-10-17T15:12:25.502Z,2.67
2022-10-17T15:17:31.142Z,3.00
2022-10-17T15:22:36.626Z,3.13
2022-10-17T15:27:38.459Z,3.03
2022-10-17T15:32:40.317Z,2.90
2022-10-17T15:37:43.132Z,3.17
2022-10-17T15:42:45.351Z,3.00
2022-10-17T15:47:56.448Z,2.67
2022-10-17T15:52:59.130Z,3.28
2022-10-17T15:58:01.119Z,3.00
2022-10-17T16:03:03.118Z,3.10
2022-10-17T16:08:05.187Z,3.50
2022-10-17T16:13:06.953Z,2.83
2022-10-17T16:18:10.017Z,2.90
2022-10-17T16:23:13.662Z,3.38
2022-10-17T16:28:15.497Z,2.97
2022-10-17T16:33:17.414Z,3.17
2022-10-17T16:38:19.259Z,2.90
2022-10-17T16:43:21.233Z,2.90
2022-10-17T16:48:26.136Z,2.70
2022-10-17T16:53:31.212Z,3.03
2022-10-17T16:58:33.042Z,3.00
2022-10-17T17:03:38.988Z,3.13
2022-10-17T17:08:41.881Z,3.08
2022-10-17T17:13:43.948Z,3.30
2022-10-17T17:18:46.339Z,3.50
2022-10-17T17:23:48.383Z,3.80
2022-10-17T17:28:51.004Z,3.55
2022-10-17T17:39:04.991Z,3.58
2022-10-17T17:44:10.082Z,3.78
2022-10-17T17:49:14.539Z,3.88
2022-10-17T17:54:16.309Z,3.53
2022-10-17T17:59:18.149Z,4.38
2022-10-17T18:04:19.899Z,4.88
2022-10-17T18:09:21.840Z,5.38
2022-10-17T18:14:26.889Z,6.22
2022-10-17T18:19:31.924Z,5.40
2022-10-17T18:24:33.986Z,5.32
2022-10-17T18:29:36.237Z,5.07
2022-10-17T18:34:38.116Z,5.28
2022-10-17T18:39:40.455Z,5.78
2022-10-17T18:44:42.251Z,5.15
2022-10-17T18:49:44.217Z,5.43
2022-10-17T18:54:46.204Z,5.68
2022-10-17T18:59:47.940Z,5.07
2022-10-17T19:09:56.447Z,4.85
2022-10-17T19:14:58.254Z,5.32
2022-10-17T19:20:00.205Z,5.18
2022-10-17T19:25:02.105Z,4.82
2022-10-17T19:30:04.837Z,5.30
2022-10-17T19:35:07.336Z,5.10
2022-10-17T19:40:09.889Z,5.63
2022-10-17T19:45:11.733Z,5.53
2022-10-17T19:50:13.534Z,5.45
2022-10-17T19:55:15.476Z,5.35
2022-10-17T20:00:17.468Z,4.68
2022-10-17T20:05:20.201Z,6.15
2022-10-17T20:10:23.549Z,6.20
2022-10-17T20:15:25.517Z,4.97
2022-10-17T20:20:28.027Z,6.60
2022-10-17T20:25:30.031Z,6.32
2022-10-17T20:30:31.804Z,6.57
2022-10-17T20:35:33.656Z,6.50
2022-10-17T20:40:35.966Z,6.60
2022-10-17T20:45:50.643Z,6.15
2022-10-17T20:50:54.070Z,6.85
2022-10-17T20:56:04.047Z,7.07
2022-10-17T21:01:10.352Z,7.00
2022-10-17T21:06:12.772Z,7.18
2022-10-17T21:11:17.917Z,6.63
2022-10-17T21:16:20.382Z,6.10
2022-10-17T21:21:23.695Z,6.55
2022-10-17T21:26:25.487Z,21.67
2022-10-17T21:31:27.967Z,7.15
2022-10-17T21:36:29.800Z,6.60
2022-10-17T21:41:32.253Z,5.50
2022-10-17T21:46:34.318Z,6.20
2022-10-17T21:51:36.211Z,6.43
2022-10-17T21:56:38.002Z,6.53
2022-10-17T22:01:42.887Z,6.55
2022-10-17T22:06:46.749Z,6.45
2022-10-17T22:11:50.894Z,6.00
2022-10-17T22:16:52.852Z,7.32
2022-10-17T22:21:55.392Z,8.02
2022-10-17T22:26:57.304Z,6.88
2022-10-17T22:31:59.066Z,5.75
2022-10-17T22:37:00.867Z,6.20
2022-10-17T22:42:02.688Z,7.05
2022-10-17T22:47:04.436Z,6.18
2022-10-17T22:52:06.236Z,6.70
2022-10-17T22:57:08.047Z,6.10
2022-10-17T23:02:09.938Z,7.47
2022-10-17T23:07:14.229Z,5.97
2022-10-17T23:12:15.992Z,7.68
2022-10-17T23:17:17.834Z,6.65
2022-10-17T23:22:19.583Z,7.93
2022-10-17T23:27:21.368Z,6.53
2022-10-17T23:32:23.157Z,8.32
2022-10-17T23:37:24.938Z,7.07
2022-10-17T23:42:26.770Z,7.45
2022-10-17T23:47:28.863Z,7.63
2022-10-17T23:52:31.076Z,6.78
2022-10-17T23:57:33.329Z,7.45
